createdAt,value
2018-03-26T12:31:59.762Z,12484
2018-03-26T12:32:12.395Z,12556
2018-03-26T12:32:24.997Z,12624
2018-03-26T12:32:37.648Z,12676
2018-03-26T12:32:50.214Z,12700
2018-03-26T12:33:02.874Z,12716
2018-03-26T12:33:15.458Z,12688
2018-03-26T12:33:28.118Z,12640
2018-03-26T12:33:40.663Z,12580
2018-03-26T12:33:53.237Z,12536
2018-03-26T12:34:05.840Z,12508
2018-03-26T12:34:18.451Z,12480
2018-03-26T12:34:31.046Z,12456
2018-03-26T12:34:43.662Z,12436
2018-03-26T12:34:56.257Z,12448
2018-03-26T12:35:08.874Z,12460
2018-03-26T12:35:21.495Z,12484
2018-03-26T12:35:34.087Z,12504
2018-03-26T12:35:46.686Z,12524
2018-03-26T12:35:59.286Z,12500
2018-03-26T12:36:11.900Z,12492
2018-03-26T12:36:24.495Z,12520
2018-03-26T12:36:37.088Z,12520
2018-03-26T12:36:49.686Z,12500
2018-03-26T12:37:02.299Z,12504
2018-03-26T12:37:14.913Z,12508
2018-03-26T12:37:27.509Z,12524
2018-03-26T12:37:40.104Z,12568
2018-03-26T12:37:52.725Z,12624
2018-03-26T12:38:05.411Z,12660
2018-03-26T12:38:18.012Z,12684
2018-03-26T12:38:30.611Z,12672
2018-03-26T12:38:43.217Z,12624
2018-03-26T12:38:56.027Z,12560
2018-03-26T12:39:08.654Z,12500
2018-03-26T12:39:21.298Z,12460
2018-03-26T12:39:34.094Z,12416
2018-03-26T12:39:46.726Z,12352
2018-03-26T12:39:59.336Z,12260
2018-03-26T12:40:11.926Z,12140
2018-03-26T12:40:24.526Z,12068
2018-03-26T12:40:37.176Z,12020
2018-03-26T12:40:49.816Z,12024
2018-03-26T12:41:02.435Z,12028
2018-03-26T12:41:15.062Z,12048
2018-03-26T12:41:27.736Z,12076
2018-03-26T12:41:40.367Z,12108
2018-03-26T12:41:52.969Z,12132
2018-03-26T12:42:05.563Z,12172
2018-03-26T12:42:18.157Z,12220
2018-03-26T12:42:30.755Z,12264
2018-03-26T12:42:43.370Z,12316
2018-03-26T12:42:55.977Z,12328
2018-03-26T12:43:08.583Z,12316
2018-03-26T12:43:21.178Z,12256
2018-03-26T12:43:33.792Z,12184
2018-03-26T12:43:46.455Z,12116
2018-03-26T12:43:59.083Z,12064
2018-03-26T12:44:11.700Z,12052
2018-03-26T12:44:24.300Z,12016
2018-03-26T12:44:36.899Z,11960
2018-03-26T12:44:49.605Z,11896
2018-03-26T12:45:02.509Z,11828
2018-03-26T12:45:15.124Z,11800
2018-03-26T12:45:27.784Z,11796
2018-03-26T12:45:40.402Z,11828
2018-03-26T12:45:53.025Z,11892
2018-03-26T12:46:05.627Z,11936
2018-03-26T12:46:18.383Z,11960
2018-03-26T12:46:30.920Z,11968
2018-03-26T12:46:43.518Z,11976
2018-03-26T12:46:56.119Z,11988
2018-03-26T12:47:08.777Z,12028
2018-03-26T12:47:21.331Z,12060
2018-03-26T12:47:33.931Z,12072
2018-03-26T12:47:46.564Z,12084
2018-03-26T12:47:59.150Z,12124
2018-03-26T12:48:11.965Z,12140
2018-03-26T12:48:24.564Z,12156
2018-03-26T12:48:37.157Z,12168
2018-03-26T12:48:49.751Z,12148
2018-03-26T12:49:02.461Z,12120
2018-03-26T12:49:15.094Z,12084
2018-03-26T12:49:27.686Z,12060
2018-03-26T12:49:40.285Z,12024
2018-03-26T12:49:52.903Z,11956
2018-03-26T12:50:05.517Z,11864
2018-03-26T12:50:18.131Z,11776
2018-03-26T12:50:30.719Z,11716
2018-03-26T12:50:43.318Z,11680
2018-03-26T12:50:55.937Z,11656
2018-03-26T12:51:08.534Z,11612
2018-03-26T12:51:21.154Z,11528
2018-03-26T12:51:33.768Z,11416
2018-03-26T12:51:46.364Z,11284
2018-03-26T12:51:59.015Z,11168
2018-03-26T12:52:11.639Z,11092
2018-03-26T12:52:24.457Z,11076
2018-03-26T12:52:37.104Z,11024
2018-03-26T12:52:49.914Z,10940
2018-03-26T12:53:02.586Z,10896
2018-03-26T12:53:15.230Z,10916
2018-03-26T12:53:27.840Z,10952
2018-03-26T12:53:40.487Z,10984
2018-03-26T12:53:53.088Z,11028
2018-03-26T12:54:05.700Z,11100
2018-03-26T12:54:18.301Z,11184
2018-03-26T12:54:30.935Z,11296
2018-03-26T12:54:43.577Z,11420
2018-03-26T12:54:56.179Z,11512
2018-03-26T12:55:08.769Z,11552
2018-03-26T12:55:21.409Z,11584
2018-03-26T12:55:34.031Z,11624
2018-03-26T12:55:46.644Z,11640
2018-03-26T12:55:59.288Z,11620
2018-03-26T12:56:11.917Z,11568
2018-03-26T12:56:24.528Z,11556
2018-03-26T12:56:37.122Z,11596
2018-03-26T12:56:49.718Z,11592
2018-03-26T12:57:02.313Z,11556
2018-03-26T12:57:14.910Z,11524
2018-03-26T12:57:27.505Z,11508
2018-03-26T12:57:40.127Z,11520
2018-03-26T12:57:52.714Z,11560
2018-03-26T12:58:05.309Z,11592
2018-03-26T12:58:17.983Z,11572
2018-03-26T12:58:30.619Z,11488
2018-03-26T12:58:43.218Z,11380
2018-03-26T12:58:56.037Z,11204
2018-03-26T12:59:08.629Z,11048
2018-03-26T12:59:21.259Z,10916
2018-03-26T12:59:33.878Z,10800
2018-03-26T12:59:46.480Z,10696
2018-03-26T12:59:59.141Z,10564
2018-03-26T13:00:11.717Z,10424
2018-03-26T13:00:24.313Z,10268
2018-03-26T13:00:36.930Z,10100
2018-03-26T13:00:49.523Z,9896
2018-03-26T13:01:02.117Z,9720
2018-03-26T13:01:14.714Z,9552
2018-03-26T13:01:27.367Z,9396
2018-03-26T13:01:39.960Z,9240
2018-03-26T13:01:52.584Z,9068
2018-03-26T13:02:05.170Z,8924
2018-03-26T13:02:17.764Z,8824
2018-03-26T13:02:30.360Z,8744
2018-03-26T13:02:42.978Z,8656
2018-03-26T13:02:55.585Z,8548
2018-03-26T13:03:08.193Z,8404
2018-03-26T13:03:20.805Z,8236
2018-03-26T13:03:33.406Z,8064
2018-03-26T13:03:45.998Z,7904
2018-03-26T13:03:58.660Z,7768
2018-03-26T13:04:11.322Z,7660
2018-03-26T13:04:23.916Z,7556
2018-03-26T13:04:36.512Z,7460
2018-03-26T13:04:49.109Z,7360
2018-03-26T13:05:01.707Z,7256
2018-03-26T13:05:14.295Z,7152
2018-03-26T13:05:26.907Z,7040
2018-03-26T13:05:39.504Z,6924
2018-03-26T13:05:52.101Z,6808
2018-03-26T13:06:04.712Z,6692
2018-03-26T13:06:17.311Z,6580
2018-03-26T13:06:29.903Z,6480
2018-03-26T13:06:42.497Z,6392
2018-03-26T13:06:55.093Z,6296
2018-03-26T13:07:07.707Z,6168
2018-03-26T13:07:20.400Z,6020
2018-03-26T13:07:33.010Z,5848
2018-03-26T13:07:45.627Z,5684
2018-03-26T13:07:58.207Z,5524
2018-03-26T13:08:10.823Z,5396
2018-03-26T13:08:23.410Z,5268
2018-03-26T13:08:36.004Z,5172
2018-03-26T13:08:48.607Z,5088
2018-03-26T13:09:01.202Z,5008
2018-03-26T13:09:13.797Z,4936
2018-03-26T13:09:26.389Z,4856
2018-03-26T13:09:38.980Z,4772
2018-03-26T13:09:51.579Z,4688
2018-03-26T13:10:04.196Z,4600
2018-03-26T13:10:16.816Z,4520
2018-03-26T13:10:29.429Z,4440
2018-03-26T13:10:42.023Z,4368
2018-03-26T13:10:54.617Z,4316
2018-03-26T13:11:07.214Z,4284
2018-03-26T13:11:19.832Z,4256
2018-03-26T13:11:32.426Z,4228
2018-03-26T13:11:45.021Z,4196
2018-03-26T13:11:57.617Z,4160
2018-03-26T13:12:10.205Z,4120
2018-03-26T13:12:22.806Z,4072
2018-03-26T13:12:35.420Z,4036
2018-03-26T13:12:48.037Z,3996
2018-03-26T13:13:00.633Z,3968
2018-03-26T13:13:13.226Z,3948
2018-03-26T13:13:25.826Z,3936
2018-03-26T13:13:38.416Z,3920
2018-03-26T13:13:51.057Z,3908
2018-03-26T13:14:03.682Z,3892
2018-03-26T13:14:16.347Z,3868
2018-03-26T13:14:28.923Z,3832
2018-03-26T13:14:41.511Z,3784
2018-03-26T13:14:54.111Z,3736
2018-03-26T13:15:06.706Z,3684
2018-03-26T13:15:19.326Z,3636
2018-03-26T13:15:31.934Z,3580
2018-03-26T13:15:44.537Z,3524
2018-03-26T13:15:57.218Z,3476
2018-03-26T13:16:09.980Z,3420
2018-03-26T13:16:22.550Z,3368
2018-03-26T13:16:35.145Z,3328
2018-03-26T13:16:47.761Z,3304
2018-03-26T13:17:00.415Z,3292
2018-03-26T13:17:13.018Z,3304
2018-03-26T13:17:25.605Z,3332
2018-03-26T13:17:38.290Z,3380
2018-03-26T13:17:50.930Z,3436
2018-03-26T13:18:03.622Z,3496
2018-03-26T13:18:16.431Z,3564
2018-03-26T13:18:29.012Z,3632
2018-03-26T13:18:41.605Z,3704
2018-03-26T13:18:54.201Z,3780
2018-03-26T13:19:06.794Z,3848
2018-03-26T13:19:19.389Z,3916
2018-03-26T13:19:31.986Z,3960
2018-03-26T13:19:44.578Z,3996
2018-03-26T13:19:57.151Z,4028
2018-03-26T13:20:09.749Z,4068
2018-03-26T13:20:22.340Z,4120
2018-03-26T13:20:34.933Z,4180
2018-03-26T13:20:47.526Z,4244
2018-03-26T13:21:00.175Z,4296
2018-03-26T13:21:12.790Z,4332
2018-03-26T13:21:25.386Z,4364
2018-03-26T13:21:37.978Z,4404
2018-03-26T13:21:50.575Z,4440
2018-03-26T13:22:03.162Z,4480
2018-03-26T13:22:15.753Z,4516
2018-03-26T13:22:28.351Z,4552
2018-03-26T13:22:40.944Z,4592
2018-03-26T13:22:53.543Z,4632
2018-03-26T13:23:06.212Z,4664
2018-03-26T13:23:18.824Z,4692
2018-03-26T13:23:31.418Z,4700
2018-03-26T13:23:44.000Z,4700
2018-03-26T13:23:56.620Z,4700
2018-03-26T13:24:09.214Z,4700
2018-03-26T13:24:21.832Z,4692
2018-03-26T13:24:34.434Z,4676
2018-03-26T13:24:47.041Z,4664
2018-03-26T13:24:59.635Z,4640
2018-03-26T13:25:12.231Z,4624
2018-03-26T13:25:24.884Z,4612
2018-03-26T13:25:37.479Z,4600
2018-03-26T13:25:50.311Z,4580
2018-03-26T13:26:02.900Z,4576
2018-03-26T13:26:15.496Z,4576
2018-03-26T13:26:28.139Z,4588
2018-03-26T13:26:40.736Z,4612
2018-03-26T13:26:53.332Z,4648
2018-03-26T13:27:05.955Z,4680
2018-03-26T13:27:18.546Z,4724
2018-03-26T13:27:31.163Z,4760
2018-03-26T13:27:43.756Z,4800
2018-03-26T13:27:56.357Z,4844
2018-03-26T13:28:08.976Z,4892
2018-03-26T13:28:21.547Z,4932
2018-03-26T13:28:34.163Z,4984
2018-03-26T13:28:46.755Z,5040
2018-03-26T13:28:59.353Z,5084
2018-03-26T13:29:11.945Z,5124
2018-03-26T13:29:24.542Z,5156
2018-03-26T13:29:37.160Z,5184
2018-03-26T13:29:49.778Z,5212
2018-03-26T13:30:02.373Z,5240
2018-03-26T13:30:14.972Z,5264
2018-03-26T13:30:27.588Z,5284
2018-03-26T13:30:40.181Z,5312
2018-03-26T13:30:52.769Z,5352
2018-03-26T13:31:05.412Z,5400
2018-03-26T13:31:18.009Z,5436
2018-03-26T13:31:30.601Z,5476
2018-03-26T13:31:43.195Z,5524
2018-03-26T13:31:55.788Z,5572
2018-03-26T13:32:08.382Z,5616
2018-03-26T13:32:20.997Z,5664
2018-03-26T13:32:33.586Z,5708
2018-03-26T13:32:46.204Z,5744
2018-03-26T13:32:59.007Z,5772
2018-03-26T13:33:11.616Z,5800
2018-03-26T13:33:24.282Z,5824
2018-03-26T13:33:36.880Z,5840
2018-03-26T13:33:49.498Z,5856
2018-03-26T13:34:02.065Z,5880
2018-03-26T13:34:14.664Z,5904
2018-03-26T13:34:27.284Z,5928
2018-03-26T13:34:39.876Z,5956
2018-03-26T13:34:52.460Z,5988
2018-03-26T13:35:05.053Z,6024
2018-03-26T13:35:17.653Z,6052
2018-03-26T13:35:30.264Z,6076
2018-03-26T13:35:42.907Z,6096
2018-03-26T13:35:55.508Z,6100
2018-03-26T13:36:08.117Z,6112
2018-03-26T13:36:20.719Z,6124
2018-03-26T13:36:33.347Z,6140
2018-03-26T13:36:45.966Z,6160
2018-03-26T13:36:58.958Z,6180
2018-03-26T13:37:11.519Z,6200
2018-03-26T13:37:24.111Z,6208
2018-03-26T13:37:36.710Z,6204
2018-03-26T13:37:49.305Z,6196
2018-03-26T13:38:01.922Z,6188
2018-03-26T13:38:14.529Z,6184
2018-03-26T13:38:27.156Z,6172
2018-03-26T13:38:39.740Z,6168
2018-03-26T13:38:52.395Z,6168
2018-03-26T13:39:05.002Z,6164
2018-03-26T13:39:17.617Z,6160
2018-03-26T13:39:30.215Z,6148
2018-03-26T13:39:42.825Z,6128
2018-03-26T13:39:55.425Z,6112
2018-03-26T13:40:08.019Z,6100
2018-03-26T13:40:20.614Z,6092
2018-03-26T13:40:33.231Z,6088
2018-03-26T13:40:45.822Z,6100
2018-03-26T13:40:58.410Z,6224
2018-03-26T13:41:11.091Z,6252
2018-03-26T13:41:23.685Z,6292
2018-03-26T13:41:36.283Z,6344
2018-03-26T13:41:48.886Z,6396
2018-03-26T13:42:01.469Z,6436
2018-03-26T13:42:14.068Z,6472
2018-03-26T13:42:26.680Z,6500
2018-03-26T13:42:39.278Z,6520
2018-03-26T13:42:51.865Z,6536
2018-03-26T13:43:04.460Z,6548
2018-03-26T13:43:17.075Z,6556
2018-03-26T13:43:29.674Z,6564
2018-03-26T13:43:42.294Z,6572
2018-03-26T13:43:54.910Z,6584
2018-03-26T13:44:07.501Z,6596
2018-03-26T13:44:20.098Z,6608
2018-03-26T13:44:32.694Z,6632
2018-03-26T13:44:45.284Z,6652
2018-03-26T13:44:57.883Z,6676
2018-03-26T13:45:10.500Z,6700
2018-03-26T13:45:23.095Z,6728
2018-03-26T13:45:35.689Z,6764
2018-03-26T13:45:48.283Z,6804
2018-03-26T13:46:00.902Z,6856
2018-03-26T13:46:13.521Z,6908
2018-03-26T13:46:26.115Z,6972
2018-03-26T13:46:38.705Z,7036
2018-03-26T13:46:51.304Z,7116
2018-03-26T13:47:03.923Z,7200
2018-03-26T13:47:16.512Z,7280
2018-03-26T13:47:29.106Z,7360
2018-03-26T13:47:41.697Z,7416
2018-03-26T13:47:54.297Z,7472
2018-03-26T13:48:06.914Z,7508
2018-03-26T13:48:19.507Z,7524
2018-03-26T13:48:32.099Z,7512
2018-03-26T13:48:44.697Z,7492
2018-03-26T13:48:57.293Z,7444
2018-03-26T13:49:09.893Z,7384
2018-03-26T13:49:22.483Z,7300
2018-03-26T13:49:35.080Z,7204
2018-03-26T13:49:47.677Z,7100
2018-03-26T13:50:00.274Z,7004
2018-03-26T13:50:12.861Z,6928
2018-03-26T13:50:25.459Z,6856
2018-03-26T13:50:38.113Z,6812
2018-03-26T13:50:50.733Z,6772
2018-03-26T13:51:03.377Z,6740
2018-03-26T13:51:15.975Z,6700
2018-03-26T13:51:28.628Z,6652
2018-03-26T13:51:41.260Z,6604
2018-03-26T13:51:53.892Z,6556
2018-03-26T13:52:06.500Z,6512
2018-03-26T13:52:19.148Z,6464
2018-03-26T13:52:31.813Z,6420
2018-03-26T13:52:44.527Z,6396
2018-03-26T13:52:57.136Z,6392
2018-03-26T13:53:09.942Z,6384
2018-03-26T13:53:22.800Z,6396
2018-03-26T13:53:35.482Z,6416
2018-03-26T13:53:48.173Z,6436
2018-03-26T13:54:00.856Z,6440
2018-03-26T13:54:13.515Z,6472
2018-03-26T13:54:26.129Z,6504
2018-03-26T13:54:38.732Z,6536
2018-03-26T13:54:51.367Z,6552
2018-03-26T13:55:03.970Z,6536
2018-03-26T13:55:16.577Z,6516
2018-03-26T13:55:29.176Z,6472
2018-03-26T13:55:41.792Z,6408
2018-03-26T13:55:54.387Z,6344
2018-03-26T13:56:07.003Z,6288
2018-03-26T13:56:19.655Z,6228
2018-03-26T13:56:32.314Z,6184
2018-03-26T13:56:44.939Z,6176
2018-03-26T13:56:57.539Z,6192
2018-03-26T13:57:10.205Z,6220
2018-03-26T13:57:22.816Z,6272
2018-03-26T13:57:35.414Z,6320
2018-03-26T13:57:48.009Z,6368
2018-03-26T13:58:00.606Z,6424
2018-03-26T13:58:13.251Z,6500
2018-03-26T13:58:25.877Z,6576
2018-03-26T13:58:38.529Z,6656
2018-03-26T13:58:51.065Z,6744
2018-03-26T13:59:03.710Z,6832
2018-03-26T13:59:16.270Z,6916
2018-03-26T13:59:28.922Z,7008
2018-03-26T13:59:41.734Z,7104
2018-03-26T13:59:54.329Z,7196
2018-03-26T14:00:06.927Z,7276
2018-03-26T14:00:19.519Z,7344
2018-03-26T14:00:32.153Z,7392
2018-03-26T14:00:44.843Z,7428
2018-03-26T14:00:57.495Z,7440
2018-03-26T14:01:10.129Z,7452
2018-03-26T14:01:22.750Z,7448
2018-03-26T14:01:35.385Z,7460
2018-03-26T14:01:48.017Z,7476
2018-03-26T14:02:00.632Z,7496
2018-03-26T14:02:13.272Z,7536
2018-03-26T14:02:25.877Z,7584
2018-03-26T14:02:38.486Z,7652
2018-03-26T14:02:51.082Z,7720
2018-03-26T14:03:03.732Z,7792
2018-03-26T14:03:16.356Z,7864
2018-03-26T14:03:28.990Z,7928
2018-03-26T14:03:41.652Z,7976
2018-03-26T14:03:54.271Z,8012
2018-03-26T14:04:06.930Z,8016
2018-03-26T14:04:19.576Z,8004
2018-03-26T14:04:32.238Z,7988
2018-03-26T14:04:44.871Z,7972
2018-03-26T14:04:57.492Z,7964
2018-03-26T14:05:10.108Z,7956
2018-03-26T14:05:22.724Z,7964
2018-03-26T14:05:35.320Z,7980
2018-03-26T14:05:47.941Z,7996
2018-03-26T14:06:00.529Z,8032
2018-03-26T14:06:13.124Z,8060
2018-03-26T14:06:25.731Z,8096
2018-03-26T14:06:38.339Z,8116
2018-03-26T14:06:50.957Z,8108
2018-03-26T14:07:03.557Z,8084
2018-03-26T14:07:16.173Z,8040
2018-03-26T14:07:28.766Z,7968
2018-03-26T14:07:41.411Z,7884
2018-03-26T14:07:54.007Z,7800
2018-03-26T14:08:06.600Z,7728
2018-03-26T14:08:19.247Z,7664
2018-03-26T14:08:31.855Z,7616
2018-03-26T14:08:44.451Z,7576
2018-03-26T14:08:57.068Z,7540
2018-03-26T14:09:09.663Z,7516
2018-03-26T14:09:22.305Z,7488
2018-03-26T14:09:34.909Z,7456
2018-03-26T14:09:47.502Z,7420
2018-03-26T14:10:00.124Z,7396
2018-03-26T14:10:12.728Z,7360
2018-03-26T14:10:25.309Z,7320
2018-03-26T14:10:37.904Z,7304
2018-03-26T14:10:50.495Z,7272
2018-03-26T14:11:03.089Z,7236
2018-03-26T14:11:15.686Z,7200
2018-03-26T14:11:28.282Z,7168
2018-03-26T14:11:40.928Z,7136
2018-03-26T14:11:53.491Z,7100
2018-03-26T14:12:06.115Z,7064
2018-03-26T14:12:18.710Z,7020
2018-03-26T14:12:31.325Z,6964
2018-03-26T14:12:43.926Z,6904
2018-03-26T14:12:56.545Z,6844
2018-03-26T14:13:09.138Z,6788
2018-03-26T14:13:21.729Z,6732
2018-03-26T14:13:34.329Z,6684
2018-03-26T14:13:47.007Z,6632
2018-03-26T14:13:59.539Z,6584
2018-03-26T14:14:12.131Z,6540
2018-03-26T14:14:24.725Z,6492
2018-03-26T14:14:37.342Z,6448
2018-03-26T14:14:49.938Z,6396
2018-03-26T14:15:02.554Z,6340
2018-03-26T14:15:15.150Z,6268
2018-03-26T14:15:27.767Z,6192
2018-03-26T14:15:40.383Z,6104
2018-03-26T14:15:52.977Z,6024
2018-03-26T14:16:05.574Z,5948
2018-03-26T14:16:18.171Z,5884
2018-03-26T14:16:30.765Z,5828
2018-03-26T14:16:43.357Z,5788
2018-03-26T14:16:55.951Z,5744
2018-03-26T14:17:08.554Z,5716
2018-03-26T14:17:21.146Z,5700
2018-03-26T14:17:33.763Z,5700
2018-03-26T14:17:46.407Z,5704
2018-03-26T14:17:59.009Z,5724
2018-03-26T14:18:11.620Z,5748
2018-03-26T14:18:24.252Z,5772
2018-03-26T14:18:36.816Z,5788
2018-03-26T14:18:49.412Z,5800
2018-03-26T14:19:02.005Z,5796
2018-03-26T14:19:14.624Z,5780
2018-03-26T14:19:27.244Z,5748
2018-03-26T14:19:39.842Z,5688
2018-03-26T14:19:52.455Z,5612
2018-03-26T14:20:05.058Z,5524
2018-03-26T14:20:17.668Z,5420
2018-03-26T14:20:30.262Z,5304
2018-03-26T14:20:42.857Z,5184
2018-03-26T14:20:55.458Z,5076
2018-03-26T14:21:08.051Z,4980
2018-03-26T14:21:20.649Z,4892
2018-03-26T14:21:33.319Z,4824
2018-03-26T14:21:45.930Z,4768
2018-03-26T14:21:58.524Z,4728
2018-03-26T14:22:11.120Z,4708
2018-03-26T14:22:23.751Z,4708
2018-03-26T14:22:36.406Z,4728
2018-03-26T14:22:49.008Z,4752
2018-03-26T14:23:01.619Z,4784
2018-03-26T14:23:14.219Z,4808
2018-03-26T14:23:26.809Z,4820
2018-03-26T14:23:39.399Z,4824
2018-03-26T14:23:51.994Z,4820
2018-03-26T14:24:04.657Z,4808
2018-03-26T14:24:17.211Z,4796
2018-03-26T14:24:29.802Z,4788
2018-03-26T14:24:42.398Z,4780
2018-03-26T14:24:55.017Z,4776
2018-03-26T14:25:07.660Z,4772
2018-03-26T14:25:20.253Z,4764
2018-03-26T14:25:32.869Z,4752
2018-03-26T14:25:45.461Z,4748
2018-03-26T14:25:58.077Z,4748
2018-03-26T14:26:10.672Z,4748
2018-03-26T14:26:23.267Z,4744
2018-03-26T14:26:35.891Z,4728
2018-03-26T14:26:48.507Z,4696
2018-03-26T14:27:01.099Z,4644
2018-03-26T14:27:13.695Z,4580
2018-03-26T14:27:26.289Z,4512
2018-03-26T14:27:38.906Z,4436
2018-03-26T14:27:51.501Z,4364
2018-03-26T14:28:04.095Z,4308
2018-03-26T14:28:16.693Z,4256
2018-03-26T14:28:29.343Z,4208
2018-03-26T14:28:41.958Z,4144
2018-03-26T14:28:54.574Z,4028
2018-03-26T14:29:07.168Z,3980
2018-03-26T14:29:19.767Z,3932
2018-03-26T14:29:32.445Z,3884
2018-03-26T14:29:45.004Z,3844
2018-03-26T14:29:57.604Z,3812
2018-03-26T14:30:10.197Z,3780
2018-03-26T14:30:22.793Z,3748
2018-03-26T14:30:35.438Z,3716
2018-03-26T14:30:48.037Z,3688
2018-03-26T14:31:00.646Z,3660
2018-03-26T14:31:13.226Z,3632
2018-03-26T14:31:25.821Z,3616
2018-03-26T14:31:38.409Z,3600
2018-03-26T14:31:51.041Z,3600
2018-03-26T14:32:03.628Z,3604
2018-03-26T14:32:16.229Z,3612
2018-03-26T14:32:28.827Z,3624
2018-03-26T14:32:41.421Z,3632
2018-03-26T14:32:54.012Z,3644
2018-03-26T14:33:06.605Z,3656
2018-03-26T14:33:19.200Z,3672
2018-03-26T14:33:31.828Z,3692
2018-03-26T14:33:44.634Z,3720
2018-03-26T14:33:57.234Z,3740
2018-03-26T14:34:09.831Z,3760
2018-03-26T14:34:22.427Z,3784
2018-03-26T14:34:35.068Z,3796
2018-03-26T14:34:47.663Z,3812
2018-03-26T14:35:00.261Z,3824
2018-03-26T14:35:12.853Z,3828
2018-03-26T14:35:25.448Z,3840
2018-03-26T14:35:38.044Z,3844
2018-03-26T14:35:50.658Z,3848
2018-03-26T14:36:03.255Z,3852
2018-03-26T14:36:15.857Z,3856
2018-03-26T14:36:28.443Z,3856
2018-03-26T14:36:41.043Z,3860
2018-03-26T14:36:53.638Z,3868
2018-03-26T14:37:06.299Z,3876
2018-03-26T14:37:18.898Z,3888
2018-03-26T14:37:31.513Z,3896
2018-03-26T14:37:44.112Z,3900
2018-03-26T14:37:56.710Z,3908
2018-03-26T14:38:09.309Z,3924
2018-03-26T14:38:21.904Z,3936
2018-03-26T14:38:34.526Z,3948
2018-03-26T14:38:47.140Z,3960
2018-03-26T14:38:59.731Z,3968
2018-03-26T14:39:12.325Z,3972
2018-03-26T14:39:24.924Z,3980
2018-03-26T14:39:37.508Z,3992
2018-03-26T14:39:50.145Z,4008
2018-03-26T14:40:02.737Z,4024
2018-03-26T14:40:15.328Z,4032
2018-03-26T14:40:27.923Z,4044
2018-03-26T14:40:40.516Z,4044
2018-03-26T14:40:53.130Z,4044
2018-03-26T14:41:05.745Z,4040
2018-03-26T14:41:18.343Z,4032
2018-03-26T14:41:30.935Z,4024
2018-03-26T14:41:43.530Z,4012
2018-03-26T14:41:56.128Z,4008
2018-03-26T14:42:08.717Z,4000
2018-03-26T14:42:21.311Z,3980
2018-03-26T14:42:33.903Z,3980
2018-03-26T14:42:46.501Z,3976
2018-03-26T14:42:59.095Z,3976
2018-03-26T14:43:11.719Z,3976
2018-03-26T14:43:24.318Z,3968
2018-03-26T14:43:36.914Z,3960
2018-03-26T14:43:49.502Z,3940
2018-03-26T14:44:02.116Z,3924
2018-03-26T14:44:14.728Z,3892
2018-03-26T14:44:27.325Z,3868
2018-03-26T14:44:39.919Z,3840
2018-03-26T14:44:52.510Z,3812
2018-03-26T14:45:05.104Z,3788
2018-03-26T14:45:17.701Z,3768
2018-03-26T14:45:30.292Z,3756
2018-03-26T14:45:42.894Z,3740
2018-03-26T14:45:55.468Z,3724
2018-03-26T14:46:08.054Z,3708
2018-03-26T14:46:20.647Z,3696
2018-03-26T14:46:33.259Z,3672
2018-03-26T14:46:45.852Z,3636
2018-03-26T14:46:58.445Z,3600
2018-03-26T14:47:11.034Z,3556
2018-03-26T14:47:23.650Z,3512
2018-03-26T14:47:36.263Z,3468
2018-03-26T14:47:48.861Z,3428
2018-03-26T14:48:01.455Z,3400
2018-03-26T14:48:14.058Z,3380
2018-03-26T14:48:26.644Z,3368
2018-03-26T14:48:39.239Z,3364
2018-03-26T14:48:51.834Z,3372
2018-03-26T14:49:04.427Z,3388
2018-03-26T14:49:17.022Z,3412
2018-03-26T14:49:29.615Z,3444
2018-03-26T14:49:42.259Z,3492
2018-03-26T14:49:54.859Z,3536
2018-03-26T14:50:07.448Z,3588
2018-03-26T14:50:20.064Z,3644
2018-03-26T14:50:32.657Z,3700
2018-03-26T14:50:45.252Z,3756
2018-03-26T14:50:57.848Z,3808
2018-03-26T14:51:10.466Z,3852
2018-03-26T14:51:23.080Z,3880
2018-03-26T14:51:35.676Z,3888
2018-03-26T14:51:48.269Z,3880
2018-03-26T14:52:00.867Z,3848
2018-03-26T14:52:13.467Z,3792
2018-03-26T14:52:26.060Z,3724
2018-03-26T14:52:38.660Z,3636
2018-03-26T14:52:51.255Z,3548
2018-03-26T14:53:03.852Z,3468
2018-03-26T14:53:16.446Z,3392
2018-03-26T14:53:29.035Z,3332
2018-03-26T14:53:41.635Z,3284
2018-03-26T14:53:54.252Z,3240
2018-03-26T14:54:06.913Z,3196
2018-03-26T14:54:19.510Z,3176
2018-03-26T14:54:32.109Z,3164
2018-03-26T14:54:44.723Z,3164
2018-03-26T14:54:57.320Z,3180
2018-03-26T14:55:09.915Z,3208
2018-03-26T14:55:22.551Z,3236
2018-03-26T14:55:35.100Z,3272
2018-03-26T14:55:47.699Z,3320
2018-03-26T14:56:00.316Z,3360
2018-03-26T14:56:12.934Z,3404
2018-03-26T14:56:25.545Z,3452
2018-03-26T14:56:38.146Z,3504
2018-03-26T14:56:50.732Z,3544
2018-03-26T14:57:03.328Z,3584
2018-03-26T14:57:15.920Z,3620
2018-03-26T14:57:28.513Z,3648
2018-03-26T14:57:41.108Z,3652
2018-03-26T14:57:53.700Z,3644
2018-03-26T14:58:06.315Z,3608
2018-03-26T14:58:18.980Z,3560
2018-03-26T14:58:31.570Z,3500
2018-03-26T14:58:44.167Z,3436
2018-03-26T14:58:56.761Z,3376
2018-03-26T14:59:09.373Z,3324
2018-03-26T14:59:21.974Z,3284
2018-03-26T14:59:34.562Z,3244
2018-03-26T14:59:47.155Z,3204
2018-03-26T14:59:59.748Z,3164
2018-03-26T15:00:12.346Z,3116
2018-03-26T15:00:24.959Z,3072
2018-03-26T15:00:37.560Z,3024
2018-03-26T15:00:50.175Z,2976
2018-03-26T15:01:02.875Z,2940
2018-03-26T15:01:15.460Z,2908
2018-03-26T15:01:28.061Z,2884
2018-03-26T15:01:40.671Z,2872
2018-03-26T15:01:53.265Z,2868
2018-03-26T15:02:05.858Z,2868
2018-03-26T15:02:18.448Z,2872
2018-03-26T15:02:31.043Z,2880
2018-03-26T15:02:44.001Z,2880
2018-03-26T15:02:56.605Z,2884
2018-03-26T15:03:09.220Z,2892
2018-03-26T15:03:21.816Z,2892
2018-03-26T15:03:34.408Z,2892
2018-03-26T15:03:47.053Z,2880
2018-03-26T15:03:59.643Z,2868
2018-03-26T15:04:12.233Z,2856
2018-03-26T15:04:24.832Z,2832
2018-03-26T15:04:37.422Z,2804
2018-03-26T15:04:50.023Z,2768
2018-03-26T15:05:02.606Z,2728
2018-03-26T15:05:15.203Z,2680
2018-03-26T15:05:27.808Z,2624
2018-03-26T15:05:40.434Z,2564
2018-03-26T15:05:53.126Z,2500
2018-03-26T15:06:05.744Z,2436
2018-03-26T15:06:18.330Z,2376
2018-03-26T15:06:30.903Z,2324
2018-03-26T15:06:43.500Z,2272
2018-03-26T15:06:56.201Z,2220
2018-03-26T15:07:08.861Z,2180
2018-03-26T15:07:21.443Z,2140
2018-03-26T15:07:34.033Z,2104
2018-03-26T15:07:46.628Z,2072
2018-03-26T15:07:59.253Z,2044
2018-03-26T15:08:11.890Z,2012
2018-03-26T15:08:24.487Z,1984
2018-03-26T15:08:37.122Z,1964
2018-03-26T15:08:49.764Z,1936
2018-03-26T15:09:02.353Z,1916
2018-03-26T15:09:14.987Z,1896
2018-03-26T15:09:27.572Z,1872
2018-03-26T15:09:40.214Z,1852
2018-03-26T15:09:52.809Z,1832
2018-03-26T15:10:05.399Z,1820
2018-03-26T15:10:18.009Z,1800
2018-03-26T15:10:30.607Z,1780
2018-03-26T15:10:43.212Z,1756
2018-03-26T15:10:55.793Z,1740
2018-03-26T15:11:08.409Z,1716
2018-03-26T15:11:21.017Z,1700
2018-03-26T15:11:33.611Z,1672
2018-03-26T15:11:46.201Z,1652
2018-03-26T15:11:58.799Z,1628
2018-03-26T15:12:11.467Z,1604
2018-03-26T15:12:24.001Z,1580
2018-03-26T15:12:36.590Z,1560
2018-03-26T15:12:49.187Z,1536
2018-03-26T15:13:01.799Z,1516
2018-03-26T15:13:14.413Z,1496
2018-03-26T15:13:27.002Z,1480
2018-03-26T15:13:39.604Z,1460
2018-03-26T15:13:52.212Z,1444
2018-03-26T15:14:04.799Z,1424
2018-03-26T15:14:17.395Z,1412
2018-03-26T15:14:29.999Z,1400
2018-03-26T15:14:42.607Z,1388
2018-03-26T15:14:55.204Z,1376
2018-03-26T15:15:07.822Z,1372
2018-03-26T15:15:20.432Z,1364
2018-03-26T15:15:33.025Z,1356
2018-03-26T15:15:45.618Z,1348
2018-03-26T15:15:58.216Z,1340
2018-03-26T15:16:10.866Z,1336
2018-03-26T15:16:23.456Z,1332
2018-03-26T15:16:36.050Z,1324
2018-03-26T15:16:48.638Z,1316
2018-03-26T15:17:01.286Z,1316
2018-03-26T15:17:13.879Z,1312
2018-03-26T15:17:26.494Z,1304
2018-03-26T15:17:39.084Z,1300
2018-03-26T15:17:51.673Z,1288
2018-03-26T15:18:04.267Z,1280
2018-03-26T15:18:16.855Z,1268
2018-03-26T15:18:29.504Z,1264
2018-03-26T15:18:42.115Z,1248